KHGR/HGR METAR and TAF weather

Enter ICAO airport designator
Station Type Date Time Source
KHGR METAR 2022/08/13 10:53 UTC NOAA

KHGR 131053Z VRB03KT 10SM CLR 15/08 A3018 RMK AO2 SLP224 T01500083 $


Station Type Date Time Source
KHGR Decoded METAR 2022/08/13 10:53 UTC NOAA

HAGERSTOWN REGIONAL AIRPORT, MD, United States (KHGR) 39-42N 077-44W 224M
Aug 13, 2022 - 06:53 AM EDT / 2022.08.13 1053 UTC
Wind: Variable at 3 MPH (3 KT):0
Visibility: 10 mile(s):0
Sky conditions: clear
Temperature: 59.0 F (15.0 C)
Dew Point: 46.9 F (8.3 C)
Relative Humidity: 64%
Pressure (altimeter): 30.18 in. Hg (1022 hPa)
ob: KHGR 131053Z VRB03KT 10SM CLR 15/08 A3018 RMK AO2 SLP224 T01500083
cycle: 11

Station Type Date Time Source
KHGR TAF UTC NOAA

Error!

Example: see airport list